VRMG

Gan International Airport

Gan, Maldives
TAF VRMG 151100Z 1512/1618 18010KT 9999 FEW018 TEMPO 1513/1519 20015G26KT 5000 -TSRA FEW018CB
Issued Valid From Valid To
Aug-15 @ 11:00 UTC
(2 hours ago)
Aug-15 @ 12:00 UTC
(41 minutes ago)
Aug-16 @ 18:00 UTC
(-1 days ago)
Aug-15 @ 12:00 to Aug-16 @ 18:00
TAF VRMG 151100Z 1512/1618 18010KT 9999 FEW018
Wind Visibility Clouds
180° at 10 knots 10,000+ meters
  • Few at 1,800' AGL
Temporary Aug-15 @ 13:00 to Aug-15 @ 19:00
TEMPO 1513/1519 20015G26KT 5000 -TSRA FEW018CB
Wind Visibility Clouds Conditions
200° at 15 knots
 Gusting to 26 knots
5,005 meters
  • Few at 1,800' AGL
  • Light Thunderstorm
  • Light Rain
TAF VRMG 151100Z 1512/1618 18010KT 9999 FEW018 TEMPO 1513/1519 20015G26KT 5000 -TSRA FEW018CB
Issued Aug-15 @ 11:00 UTC
(2 hours ago)
Valid From Aug-15 @ 12:00 UTC
(41 minutes ago)
Valid To Aug-16 @ 18:00 UTC
(-1 days ago)
Aug-15 @ 12:00 - Aug-16 @ 18:00
Wind Visibility
180° at 10 knots 10,000+ meters
Clouds
  • Few at 1,800' AGL
Temporary Aug-15 @ 13:00 - Aug-15 @ 19:00
Wind Visibility
200° at 15 knots
 Gusting to 26 knots
5,005 meters
Clouds
  • Few at 1,800' AGL
Conditions
  • Light Thunderstorm
  • Light Rain